sensor_id;sensor_type;location;lat;lon;timestamp;temperature;humidity
52621;DHT22;38515;53.160;6.990;2023-02-04T00:01:37;6.10;99.90
52621;DHT22;38515;53.160;6.990;2023-02-04T00:04:03;5.60;99.90
52621;DHT22;38515;53.160;6.990;2023-02-04T00:06:29;6.10;99.90
52621;DHT22;38515;53.160;6.990;2023-02-04T00:08:55;6.10;99.90
52621;DHT22;38515;53.160;6.990;2023-02-04T00:11:21;6.10;99.90
52621;DHT22;38515;53.160;6.990;2023-02-04T00:13:50;6.10;99.90
52621;DHT22;38515;53.160;6.990;2023-02-04T00:16:16;6.10;99.90
52621;DHT22;38515;53.160;6.990;2023-02-04T00:18:42;6.00;99.90
52621;DHT22;38515;53.160;6.990;2023-02-04T00:21:07;6.00;99.90
52621;DHT22;38515;53.160;6.990;2023-02-04T00:23:33;6.10;99.90
52621;DHT22;38515;53.160;6.990;2023-02-04T00:25:59;6.10;99.90
52621;DHT22;38515;53.160;6.990;2023-02-04T00:28:25;6.10;99.90
52621;DHT22;38515;53.160;6.990;2023-02-04T00:30:51;6.10;99.90
52621;DHT22;38515;53.160;6.990;2023-02-04T00:33:17;6.10;99.90
52621;DHT22;38515;53.160;6.990;2023-02-04T00:35:43;6.00;99.90
52621;DHT22;38515;53.160;6.990;2023-02-04T00:38:09;6.00;99.90
52621;DHT22;38515;53.160;6.990;2023-02-04T00:40:35;6.00;99.90
52621;DHT22;38515;53.160;6.990;2023-02-04T00:43:01;6.00;99.90
52621;DHT22;38515;53.160;6.990;2023-02-04T00:45:27;6.10;99.90
52621;DHT22;38515;53.160;6.990;2023-02-04T00:47:53;6.10;99.90
52621;DHT22;38515;53.160;6.990;2023-02-04T00:50:19;6.10;99.90
52621;DHT22;38515;53.160;6.990;2023-02-04T00:52:45;6.10;99.90
52621;DHT22;38515;53.160;6.990;2023-02-04T00:55:11;6.10;99.90
52621;DHT22;38515;53.160;6.990;2023-02-04T00:57:40;6.10;99.90
52621;DHT22;38515;53.160;6.990;2023-02-04T01:00:06;6.10;99.90
52621;DHT22;38515;53.160;6.990;2023-02-04T01:02:32;6.10;99.90
52621;DHT22;38515;53.160;6.990;2023-02-04T01:04:58;6.00;99.90
52621;DHT22;38515;53.160;6.990;2023-02-04T01:07:24;6.10;99.90
52621;DHT22;38515;53.160;6.990;2023-02-04T01:09:50;6.10;99.90
52621;DHT22;38515;53.160;6.990;2023-02-04T01:12:16;6.10;99.90
52621;DHT22;38515;53.160;6.990;2023-02-04T01:14:42;6.00;99.90
52621;DHT22;38515;53.160;6.990;2023-02-04T01:17:08;6.10;99.90
52621;DHT22;38515;53.160;6.990;2023-02-04T01:19:34;6.20;99.90
52621;DHT22;38515;53.160;6.990;2023-02-04T01:22:00;6.10;99.90
52621;DHT22;38515;53.160;6.990;2023-02-04T01:24:26;6.10;99.90
52621;DHT22;38515;53.160;6.990;2023-02-04T01:26:52;6.10;99.90
52621;DHT22;38515;53.160;6.990;2023-02-04T01:29:18;6.20;99.90
52621;DHT22;38515;53.160;6.990;2023-02-04T01:31:44;6.20;99.90
52621;DHT22;38515;53.160;6.990;2023-02-04T01:34:10;6.10;99.90
52621;DHT22;38515;53.160;6.990;2023-02-04T01:36:35;6.10;99.90
52621;DHT22;38515;53.160;6.990;2023-02-04T01:39:01;6.10;99.90
52621;DHT22;38515;53.160;6.990;2023-02-04T01:41:28;6.10;99.90
52621;DHT22;38515;53.160;6.990;2023-02-04T01:43:54;6.20;99.90
52621;DHT22;38515;53.160;6.990;2023-02-04T01:46:20;6.10;99.90
52621;DHT22;38515;53.160;6.990;2023-02-04T01:48:46;6.20;99.90
52621;DHT22;38515;53.160;6.990;2023-02-04T01:51:14;6.10;99.90
52621;DHT22;38515;53.160;6.990;2023-02-04T01:53:41;6.10;99.90
52621;DHT22;38515;53.160;6.990;2023-02-04T01:56:16;6.00;99.90
52621;DHT22;38515;53.160;6.990;2023-02-04T01:58:43;6.10;99.90
52621;DHT22;38515;53.160;6.990;2023-02-04T02:01:13;6.10;99.90
52621;DHT22;38515;53.160;6.990;2023-02-04T02:03:39;4.80;99.90
52621;DHT22;38515;53.160;6.990;2023-02-04T02:06:06;6.00;99.90
52621;DHT22;38515;53.160;6.990;2023-02-04T02:08:35;6.00;99.90
52621;DHT22;38515;53.160;6.990;2023-02-04T02:11:01;6.10;99.90
52621;DHT22;38515;53.160;6.990;2023-02-04T02:13:27;6.10;99.90
52621;DHT22;38515;53.160;6.990;2023-02-04T02:15:53;6.10;99.90
52621;DHT22;38515;53.160;6.990;2023-02-04T02:18:19;6.00;99.90
52621;DHT22;38515;53.160;6.990;2023-02-04T02:20:45;6.10;99.90
52621;DHT22;38515;53.160;6.990;2023-02-04T02:23:25;6.10;99.90
52621;DHT22;38515;53.160;6.990;2023-02-04T02:25:53;6.10;99.90
52621;DHT22;38515;53.160;6.990;2023-02-04T02:28:21;6.00;99.90
52621;DHT22;38515;53.160;6.990;2023-02-04T02:30:48;6.10;99.90
52621;DHT22;38515;53.160;6.990;2023-02-04T02:33:15;6.10;99.90
52621;DHT22;38515;53.160;6.990;2023-02-04T02:35:43;6.00;99.90
52621;DHT22;38515;53.160;6.990;2023-02-04T02:38:10;6.00;99.90
52621;DHT22;38515;53.160;6.990;2023-02-04T02:40:37;5.90;99.90
52621;DHT22;38515;53.160;6.990;2023-02-04T02:43:04;5.90;99.90
52621;DHT22;38515;53.160;6.990;2023-02-04T02:45:31;5.80;99.90
52621;DHT22;38515;53.160;6.990;2023-02-04T02:48:00;5.80;99.90
52621;DHT22;38515;53.160;6.990;2023-02-04T02:50:30;5.90;99.90
52621;DHT22;38515;53.160;6.990;2023-02-04T02:52:56;5.80;99.90
52621;DHT22;38515;53.160;6.990;2023-02-04T02:55:27;5.80;99.90
52621;DHT22;38515;53.160;6.990;2023-02-04T02:57:54;5.70;99.90
52621;DHT22;38515;53.160;6.990;2023-02-04T03:00:23;5.70;99.90
52621;DHT22;38515;53.160;6.990;2023-02-04T03:03:10;5.60;99.90
52621;DHT22;38515;53.160;6.990;2023-02-04T03:05:41;5.60;99.90
52621;DHT22;38515;53.160;6.990;2023-02-04T03:08:08;5.60;99.90
52621;DHT22;38515;53.160;6.990;2023-02-04T03:10:35;5.50;99.90
52621;DHT22;38515;53.160;6.990;2023-02-04T03:13:02;5.50;99.90
52621;DHT22;38515;53.160;6.990;2023-02-04T03:15:29;5.50;99.90
52621;DHT22;38515;53.160;6.990;2023-02-04T03:17:55;5.40;99.90
52621;DHT22;38515;53.160;6.990;2023-02-04T03:20:24;5.40;99.90
52621;DHT22;38515;53.160;6.990;2023-02-04T03:22:52;5.30;99.90
52621;DHT22;38515;53.160;6.990;2023-02-04T03:25:18;5.30;99.90
52621;DHT22;38515;53.160;6.990;2023-02-04T03:27:45;5.20;99.90
52621;DHT22;38515;53.160;6.990;2023-02-04T03:30:12;5.20;99.90
52621;DHT22;38515;53.160;6.990;2023-02-04T03:32:37;5.30;99.90
52621;DHT22;38515;53.160;6.990;2023-02-04T03:35:03;5.30;99.90
52621;DHT22;38515;53.160;6.990;2023-02-04T03:37:29;5.20;99.90
52621;DHT22;38515;53.160;6.990;2023-02-04T03:39:55;5.50;99.90
52621;DHT22;38515;53.160;6.990;2023-02-04T03:42:21;5.10;99.90
52621;DHT22;38515;53.160;6.990;2023-02-04T03:44:47;5.00;99.90
52621;DHT22;38515;53.160;6.990;2023-02-04T03:47:13;5.10;99.90
52621;DHT22;38515;53.160;6.990;2023-02-04T03:49:39;5.00;99.90
52621;DHT22;38515;53.160;6.990;2023-02-04T03:52:05;5.00;99.90
52621;DHT22;38515;53.160;6.990;2023-02-04T03:54:31;5.00;99.90
52621;DHT22;38515;53.160;6.990;2023-02-04T03:56:57;5.00;99.90
52621;DHT22;38515;53.160;6.990;2023-02-04T03:59:23;4.90;99.90
52621;DHT22;38515;53.160;6.990;2023-02-04T04:01:49;4.90;99.90
52621;DHT22;38515;53.160;6.990;2023-02-04T04:04:15;4.80;99.90
52621;DHT22;38515;53.160;6.990;2023-02-04T04:06:43;4.70;99.90
52621;DHT22;38515;53.160;6.990;2023-02-04T04:09:09;4.70;99.90
52621;DHT22;38515;53.160;6.990;2023-02-04T04:11:35;4.20;99.90
52621;DHT22;38515;53.160;6.990;2023-02-04T04:14:01;3.50;99.90
52621;DHT22;38515;53.160;6.990;2023-02-04T04:16:26;4.20;99.90
52621;DHT22;38515;53.160;6.990;2023-02-04T04:18:54;4.70;99.90
52621;DHT22;38515;53.160;6.990;2023-02-04T04:21:20;4.70;99.90
52621;DHT22;38515;53.160;6.990;2023-02-04T04:23:46;4.60;99.90
52621;DHT22;38515;53.160;6.990;2023-02-04T04:26:12;4.50;99.90
52621;DHT22;38515;53.160;6.990;2023-02-04T04:28:38;4.60;99.90
52621;DHT22;38515;53.160;6.990;2023-02-04T04:31:04;4.60;99.90
52621;DHT22;38515;53.160;6.990;2023-02-04T04:33:30;4.60;99.90
52621;DHT22;38515;53.160;6.990;2023-02-04T04:35:56;4.50;99.90
52621;DHT22;38515;53.160;6.990;2023-02-04T04:38:22;4.50;99.90
52621;DHT22;38515;53.160;6.990;2023-02-04T04:40:48;4.50;99.90
52621;DHT22;38515;53.160;6.990;2023-02-04T04:43:13;4.50;99.90
52621;DHT22;38515;53.160;6.990;2023-02-04T04:45:39;4.50;99.90
52621;DHT22;38515;53.160;6.990;2023-02-04T04:48:05;4.40;99.90
52621;DHT22;38515;53.160;6.990;2023-02-04T04:50:31;4.40;99.90
52621;DHT22;38515;53.160;6.990;2023-02-04T04:52:57;4.50;99.90
52621;DHT22;38515;53.160;6.990;2023-02-04T04:55:23;4.40;99.90
52621;DHT22;38515;53.160;6.990;2023-02-04T04:57:50;4.40;99.90
52621;DHT22;38515;53.160;6.990;2023-02-04T05:00:17;4.40;99.90
52621;DHT22;38515;53.160;6.990;2023-02-04T05:02:44;2.90;99.90
52621;DHT22;38515;53.160;6.990;2023-02-04T05:05:10;4.30;99.90
52621;DHT22;38515;53.160;6.990;2023-02-04T05:07:37;4.30;99.90
52621;DHT22;38515;53.160;6.990;2023-02-04T05:10:03;4.30;99.90
52621;DHT22;38515;53.160;6.990;2023-02-04T05:12:29;4.40;99.90
52621;DHT22;38515;53.160;6.990;2023-02-04T05:14:55;4.40;99.90
52621;DHT22;38515;53.160;6.990;2023-02-04T05:17:21;4.30;99.90
52621;DHT22;38515;53.160;6.990;2023-02-04T05:19:47;3.30;99.90
52621;DHT22;38515;53.160;6.990;2023-02-04T05:22:13;4.30;99.90
52621;DHT22;38515;53.160;6.990;2023-02-04T05:24:39;3.70;99.90
52621;DHT22;38515;53.160;6.990;2023-02-04T05:27:04;4.20;99.90
52621;DHT22;38515;53.160;6.990;2023-02-04T05:29:30;4.00;99.90
52621;DHT22;38515;53.160;6.990;2023-02-04T05:31:59;4.20;99.90
52621;DHT22;38515;53.160;6.990;2023-02-04T05:34:25;4.20;99.90
52621;DHT22;38515;53.160;6.990;2023-02-04T05:36:50;4.20;99.90
52621;DHT22;38515;53.160;6.990;2023-02-04T05:39:19;4.30;99.90
52621;DHT22;38515;53.160;6.990;2023-02-04T05:41:45;4.20;99.90
52621;DHT22;38515;53.160;6.990;2023-02-04T05:44:11;4.20;99.90
52621;DHT22;38515;53.160;6.990;2023-02-04T05:46:37;4.20;99.90
52621;DHT22;38515;53.160;6.990;2023-02-04T05:49:04;4.20;99.90
52621;DHT22;38515;53.160;6.990;2023-02-04T05:51:30;4.20;99.90
52621;DHT22;38515;53.160;6.990;2023-02-04T05:53:56;4.20;99.90
52621;DHT22;38515;53.160;6.990;2023-02-04T05:56:23;4.90;99.90
52621;DHT22;38515;53.160;6.990;2023-02-04T05:58:50;4.10;99.90
52621;DHT22;38515;53.160;6.990;2023-02-04T06:01:16;4.10;99.90
52621;DHT22;38515;53.160;6.990;2023-02-04T06:03:42;4.20;99.90
52621;DHT22;38515;53.160;6.990;2023-02-04T06:06:08;4.20;99.90
52621;DHT22;38515;53.160;6.990;2023-02-04T06:08:34;4.10;99.90
52621;DHT22;38515;53.160;6.990;2023-02-04T06:11:00;4.10;99.90
52621;DHT22;38515;53.160;6.990;2023-02-04T06:13:26;4.10;99.90
52621;DHT22;38515;53.160;6.990;2023-02-04T06:15:52;4.10;99.90
52621;DHT22;38515;53.160;6.990;2023-02-04T06:18:18;4.10;99.90
52621;DHT22;38515;53.160;6.990;2023-02-04T06:20:44;4.10;99.90
52621;DHT22;38515;53.160;6.990;2023-02-04T06:23:10;3.90;99.90
52621;DHT22;38515;53.160;6.990;2023-02-04T06:25:35;4.10;99.90
52621;DHT22;38515;53.160;6.990;2023-02-04T06:28:01;4.10;99.90
52621;DHT22;38515;53.160;6.990;2023-02-04T06:30:27;4.00;99.90
52621;DHT22;38515;53.160;6.990;2023-02-04T06:32:53;4.00;99.90
52621;DHT22;38515;53.160;6.990;2023-02-04T06:35:19;4.10;99.90
52621;DHT22;38515;53.160;6.990;2023-02-04T06:37:45;4.10;99.90
52621;DHT22;38515;53.160;6.990;2023-02-04T06:40:12;4.10;99.90
52621;DHT22;38515;53.160;6.990;2023-02-04T06:42:38;4.00;99.90
52621;DHT22;38515;53.160;6.990;2023-02-04T06:45:04;4.00;99.90
52621;DHT22;38515;53.160;6.990;2023-02-04T06:47:30;4.00;99.90
52621;DHT22;38515;53.160;6.990;2023-02-04T06:49:56;3.80;99.90
52621;DHT22;38515;53.160;6.990;2023-02-04T06:52:22;4.00;99.90
52621;DHT22;38515;53.160;6.990;2023-02-04T06:54:48;4.00;99.90
52621;DHT22;38515;53.160;6.990;2023-02-04T06:57:14;4.00;99.90
52621;DHT22;38515;53.160;6.990;2023-02-04T06:59:40;4.00;99.90
52621;DHT22;38515;53.160;6.990;2023-02-04T07:02:09;4.00;99.90
52621;DHT22;38515;53.160;6.990;2023-02-04T07:04:36;4.00;99.90
52621;DHT22;38515;53.160;6.990;2023-02-04T07:07:02;4.00;99.90
52621;DHT22;38515;53.160;6.990;2023-02-04T07:09:28;4.00;99.90
52621;DHT22;38515;53.160;6.990;2023-02-04T07:11:54;4.00;99.90
52621;DHT22;38515;53.160;6.990;2023-02-04T07:14:20;4.00;99.90
52621;DHT22;38515;53.160;6.990;2023-02-04T07:16:46;4.00;99.90
52621;DHT22;38515;53.160;6.990;2023-02-04T07:19:12;4.00;99.90
52621;DHT22;38515;53.160;6.990;2023-02-04T07:21:38;4.00;99.90
52621;DHT22;38515;53.160;6.990;2023-02-04T07:24:04;4.00;99.90
52621;DHT22;38515;53.160;6.990;2023-02-04T07:26:30;3.90;99.90
52621;DHT22;38515;53.160;6.990;2023-02-04T07:28:55;3.90;99.90
52621;DHT22;38515;53.160;6.990;2023-02-04T07:31:22;3.90;99.90
52621;DHT22;38515;53.160;6.990;2023-02-04T07:33:48;3.90;99.90
52621;DHT22;38515;53.160;6.990;2023-02-04T07:36:13;3.90;99.90
52621;DHT22;38515;53.160;6.990;2023-02-04T07:38:39;3.90;99.90
52621;DHT22;38515;53.160;6.990;2023-02-04T07:41:05;4.10;99.90
52621;DHT22;38515;53.160;6.990;2023-02-04T07:43:31;3.90;99.90
52621;DHT22;38515;53.160;6.990;2023-02-04T07:45:57;4.00;99.90
52621;DHT22;38515;53.160;6.990;2023-02-04T07:48:23;4.00;99.90
52621;DHT22;38515;53.160;6.990;2023-02-04T07:50:49;4.00;99.90
52621;DHT22;38515;53.160;6.990;2023-02-04T07:53:15;4.40;99.90
52621;DHT22;38515;53.160;6.990;2023-02-04T07:55:40;4.00;99.90
52621;DHT22;38515;53.160;6.990;2023-02-04T07:58:06;4.00;99.90
52621;DHT22;38515;53.160;6.990;2023-02-04T08:00:32;4.00;99.90
52621;DHT22;38515;53.160;6.990;2023-02-04T08:02:58;4.30;99.90
52621;DHT22;38515;53.160;6.990;2023-02-04T08:07:50;4.00;99.90
52621;DHT22;38515;53.160;6.990;2023-02-04T08:10:16;4.00;99.90
52621;DHT22;38515;53.160;6.990;2023-02-04T08:12:42;4.00;99.90
52621;DHT22;38515;53.160;6.990;2023-02-04T08:15:08;4.00;99.90
52621;DHT22;38515;53.160;6.990;2023-02-04T08:17:34;3.90;99.90
52621;DHT22;38515;53.160;6.990;2023-02-04T08:20:00;4.10;99.90
52621;DHT22;38515;53.160;6.990;2023-02-04T08:22:26;3.60;99.90
52621;DHT22;38515;53.160;6.990;2023-02-04T08:24:52;4.10;99.90
52621;DHT22;38515;53.160;6.990;2023-02-04T08:27:18;4.10;99.90
52621;DHT22;38515;53.160;6.990;2023-02-04T08:29:44;4.10;99.90
52621;DHT22;38515;53.160;6.990;2023-02-04T08:32:10;4.20;99.90
52621;DHT22;38515;53.160;6.990;2023-02-04T08:34:38;4.20;99.90
52621;DHT22;38515;53.160;6.990;2023-02-04T08:37:04;4.20;99.90
52621;DHT22;38515;53.160;6.990;2023-02-04T08:39:30;4.60;99.90
52621;DHT22;38515;53.160;6.990;2023-02-04T08:41:57;4.20;99.90
52621;DHT22;38515;53.160;6.990;2023-02-04T08:44:23;4.20;99.90
52621;DHT22;38515;53.160;6.990;2023-02-04T08:46:49;4.20;99.90
52621;DHT22;38515;53.160;6.990;2023-02-04T08:49:15;4.20;99.90
52621;DHT22;38515;53.160;6.990;2023-02-04T08:51:45;4.20;99.90
52621;DHT22;38515;53.160;6.990;2023-02-04T08:54:10;4.00;99.90
52621;DHT22;38515;53.160;6.990;2023-02-04T08:56:36;4.20;99.90
52621;DHT22;38515;53.160;6.990;2023-02-04T08:59:02;4.30;99.90
52621;DHT22;38515;53.160;6.990;2023-02-04T09:01:28;4.30;99.90
52621;DHT22;38515;53.160;6.990;2023-02-04T09:03:54;4.60;99.90
52621;DHT22;38515;53.160;6.990;2023-02-04T09:06:20;4.30;99.90
52621;DHT22;38515;53.160;6.990;2023-02-04T09:08:46;4.30;99.90
52621;DHT22;38515;53.160;6.990;2023-02-04T09:11:12;4.60;99.90
52621;DHT22;38515;53.160;6.990;2023-02-04T09:13:39;4.30;99.90
52621;DHT22;38515;53.160;6.990;2023-02-04T09:16:05;4.30;99.90
52621;DHT22;38515;53.160;6.990;2023-02-04T09:18:32;4.40;99.90
52621;DHT22;38515;53.160;6.990;2023-02-04T09:20:58;4.40;99.90
52621;DHT22;38515;53.160;6.990;2023-02-04T09:23:24;4.50;99.90
52621;DHT22;38515;53.160;6.990;2023-02-04T09:25:50;2.90;99.90
52621;DHT22;38515;53.160;6.990;2023-02-04T09:28:16;4.80;99.90
52621;DHT22;38515;53.160;6.990;2023-02-04T09:30:44;4.80;99.90
52621;DHT22;38515;53.160;6.990;2023-02-04T09:33:13;5.00;99.90
52621;DHT22;38515;53.160;6.990;2023-02-04T09:35:39;7.20;99.90
52621;DHT22;38515;53.160;6.990;2023-02-04T09:38:05;5.30;99.90
52621;DHT22;38515;53.160;6.990;2023-02-04T09:40:34;5.60;99.90
52621;DHT22;38515;53.160;6.990;2023-02-04T09:43:02;6.00;99.90
52621;DHT22;38515;53.160;6.990;2023-02-04T09:45:32;6.00;99.90
52621;DHT22;38515;53.160;6.990;2023-02-04T09:48:04;6.20;99.90
52621;DHT22;38515;53.160;6.990;2023-02-04T09:50:31;6.40;99.90
52621;DHT22;38515;53.160;6.990;2023-02-04T09:53:03;6.40;99.90
52621;DHT22;38515;53.160;6.990;2023-02-04T09:55:33;6.20;99.90
52621;DHT22;38515;53.160;6.990;2023-02-04T09:58:00;6.30;99.90
52621;DHT22;38515;53.160;6.990;2023-02-04T10:00:28;6.00;99.90
52621;DHT22;38515;53.160;6.990;2023-02-04T10:02:57;5.80;99.90
52621;DHT22;38515;53.160;6.990;2023-02-04T10:05:30;5.90;99.90
52621;DHT22;38515;53.160;6.990;2023-02-04T10:07:57;6.00;99.90
52621;DHT22;38515;53.160;6.990;2023-02-04T10:10:25;6.10;99.90
52621;DHT22;38515;53.160;6.990;2023-02-04T10:12:55;6.10;99.90
52621;DHT22;38515;53.160;6.990;2023-02-04T10:15:22;6.40;99.90
52621;DHT22;38515;53.160;6.990;2023-02-04T10:17:53;6.30;99.90
52621;DHT22;38515;53.160;6.990;2023-02-04T10:20:22;6.40;99.90
52621;DHT22;38515;53.160;6.990;2023-02-04T10:22:51;6.60;99.90
52621;DHT22;38515;53.160;6.990;2023-02-04T10:25:20;6.40;99.90
52621;DHT22;38515;53.160;6.990;2023-02-04T10:27:51;6.40;99.90
52621;DHT22;38515;53.160;6.990;2023-02-04T10:30:20;6.10;99.90
52621;DHT22;38515;53.160;6.990;2023-02-04T10:32:47;5.80;99.90
52621;DHT22;38515;53.160;6.990;2023-02-04T10:35:15;5.80;99.90
52621;DHT22;38515;53.160;6.990;2023-02-04T10:37:41;5.80;99.90
52621;DHT22;38515;53.160;6.990;2023-02-04T10:40:30;5.70;99.90
52621;DHT22;38515;53.160;6.990;2023-02-04T10:42:57;6.00;99.90
52621;DHT22;38515;53.160;6.990;2023-02-04T10:45:29;5.80;99.90
52621;DHT22;38515;53.160;6.990;2023-02-04T10:47:56;5.70;99.90
52621;DHT22;38515;53.160;6.990;2023-02-04T10:50:24;5.80;99.90
52621;DHT22;38515;53.160;6.990;2023-02-04T10:52:58;5.90;99.90
52621;DHT22;38515;53.160;6.990;2023-02-04T10:55:45;5.90;99.90
52621;DHT22;38515;53.160;6.990;2023-02-04T10:58:16;5.30;99.90
52621;DHT22;38515;53.160;6.990;2023-02-04T11:00:42;5.80;99.90
52621;DHT22;38515;53.160;6.990;2023-02-04T11:03:22;5.90;99.90
52621;DHT22;38515;53.160;6.990;2023-02-04T11:05:49;6.00;99.90
52621;DHT22;38515;53.160;6.990;2023-02-04T11:10:57;6.00;99.90
52621;DHT22;38515;53.160;6.990;2023-02-04T11:13:26;6.10;99.90
52621;DHT22;38515;53.160;6.990;2023-02-04T11:23:49;6.40;99.90
52621;DHT22;38515;53.160;6.990;2023-02-04T11:26:18;6.30;99.90
52621;DHT22;38515;53.160;6.990;2023-02-04T11:31:26;6.20;99.90
52621;DHT22;38515;53.160;6.990;2023-02-04T11:37:14;6.20;99.90
52621;DHT22;38515;53.160;6.990;2023-02-04T11:42:19;6.10;99.90
52621;DHT22;38515;53.160;6.990;2023-02-04T11:44:53;6.30;99.90
52621;DHT22;38515;53.160;6.990;2023-02-04T11:47:22;6.40;99.90
52621;DHT22;38515;53.160;6.990;2023-02-04T11:49:54;6.60;99.90
52621;DHT22;38515;53.160;6.990;2023-02-04T11:52:20;6.90;99.90
52621;DHT22;38515;53.160;6.990;2023-02-04T11:54:57;6.90;99.90
52621;DHT22;38515;53.160;6.990;2023-02-04T11:57:24;6.90;99.90
52621;DHT22;38515;53.160;6.990;2023-02-04T11:59:51;6.90;99.90
52621;DHT22;38515;53.160;6.990;2023-02-04T12:02:21;6.90;99.90
52621;DHT22;38515;53.160;6.990;2023-02-04T12:04:55;7.10;99.90
52621;DHT22;38515;53.160;6.990;2023-02-04T12:07:27;7.20;99.90
52621;DHT22;38515;53.160;6.990;2023-02-04T12:09:54;7.30;99.90
52621;DHT22;38515;53.160;6.990;2023-02-04T12:12:29;7.30;99.90
52621;DHT22;38515;53.160;6.990;2023-02-04T12:15:15;7.10;99.90
52621;DHT22;38515;53.160;6.990;2023-02-04T12:17:45;6.90;99.90
52621;DHT22;38515;53.160;6.990;2023-02-04T12:20:14;6.80;99.90
52621;DHT22;38515;53.160;6.990;2023-02-04T12:22:40;6.70;99.90
52621;DHT22;38515;53.160;6.990;2023-02-04T12:25:06;6.60;99.90
52621;DHT22;38515;53.160;6.990;2023-02-04T12:27:32;6.50;99.90
52621;DHT22;38515;53.160;6.990;2023-02-04T12:29:58;6.60;99.90
52621;DHT22;38515;53.160;6.990;2023-02-04T12:32:24;6.70;99.90
52621;DHT22;38515;53.160;6.990;2023-02-04T12:34:50;6.80;99.90
52621;DHT22;38515;53.160;6.990;2023-02-04T12:37:16;6.60;99.90
52621;DHT22;38515;53.160;6.990;2023-02-04T12:39:41;6.40;99.90
52621;DHT22;38515;53.160;6.990;2023-02-04T12:42:07;6.40;99.90
52621;DHT22;38515;53.160;6.990;2023-02-04T12:44:33;6.40;99.90
52621;DHT22;38515;53.160;6.990;2023-02-04T12:47:00;6.40;99.90
52621;DHT22;38515;53.160;6.990;2023-02-04T12:49:26;6.50;99.90
52621;DHT22;38515;53.160;6.990;2023-02-04T12:51:52;6.50;99.90
52621;DHT22;38515;53.160;6.990;2023-02-04T12:54:17;6.60;99.90
52621;DHT22;38515;53.160;6.990;2023-02-04T12:56:43;6.70;99.90
52621;DHT22;38515;53.160;6.990;2023-02-04T12:59:09;6.60;99.90
52621;DHT22;38515;53.160;6.990;2023-02-04T13:01:35;6.60;99.90
52621;DHT22;38515;53.160;6.990;2023-02-04T13:04:01;6.70;99.90
52621;DHT22;38515;53.160;6.990;2023-02-04T13:06:27;6.70;99.90
52621;DHT22;38515;53.160;6.990;2023-02-04T13:08:52;6.60;99.90
52621;DHT22;38515;53.160;6.990;2023-02-04T13:11:18;6.70;99.90
52621;DHT22;38515;53.160;6.990;2023-02-04T13:13:44;6.60;99.90
52621;DHT22;38515;53.160;6.990;2023-02-04T13:16:10;6.80;99.90
52621;DHT22;38515;53.160;6.990;2023-02-04T13:18:37;6.90;99.90
52621;DHT22;38515;53.160;6.990;2023-02-04T13:21:04;6.90;99.90
52621;DHT22;38515;53.160;6.990;2023-02-04T13:23:29;6.90;99.90
52621;DHT22;38515;53.160;6.990;2023-02-04T13:25:55;6.90;99.90
52621;DHT22;38515;53.160;6.990;2023-02-04T13:28:22;6.90;99.90
52621;DHT22;38515;53.160;6.990;2023-02-04T13:30:47;6.90;99.90
52621;DHT22;38515;53.160;6.990;2023-02-04T13:33:13;7.00;99.90
52621;DHT22;38515;53.160;6.990;2023-02-04T13:35:41;6.70;99.90
52621;DHT22;38515;53.160;6.990;2023-02-04T13:38:09;6.90;99.90
52621;DHT22;38515;53.160;6.990;2023-02-04T13:40:35;7.00;99.90
52621;DHT22;38515;53.160;6.990;2023-02-04T13:43:01;6.90;99.90
52621;DHT22;38515;53.160;6.990;2023-02-04T13:45:27;6.90;99.90
52621;DHT22;38515;53.160;6.990;2023-02-04T13:47:53;6.90;99.90
52621;DHT22;38515;53.160;6.990;2023-02-04T13:50:19;6.90;99.90
52621;DHT22;38515;53.160;6.990;2023-02-04T13:52:45;6.90;99.90
52621;DHT22;38515;53.160;6.990;2023-02-04T13:55:10;6.80;99.90
52621;DHT22;38515;53.160;6.990;2023-02-04T13:57:37;6.90;99.90
52621;DHT22;38515;53.160;6.990;2023-02-04T14:00:04;5.60;99.90
52621;DHT22;38515;53.160;6.990;2023-02-04T14:02:30;6.90;99.90
52621;DHT22;38515;53.160;6.990;2023-02-04T14:04:56;7.10;99.90
52621;DHT22;38515;53.160;6.990;2023-02-04T14:07:23;7.20;99.90
52621;DHT22;38515;53.160;6.990;2023-02-04T14:09:49;7.10;99.90
52621;DHT22;38515;53.160;6.990;2023-02-04T14:12:15;7.20;99.90
52621;DHT22;38515;53.160;6.990;2023-02-04T14:14:41;7.00;99.90
52621;DHT22;38515;53.160;6.990;2023-02-04T14:17:07;6.90;99.90
52621;DHT22;38515;53.160;6.990;2023-02-04T14:19:33;6.90;99.90
52621;DHT22;38515;53.160;6.990;2023-02-04T14:21:59;6.90;99.90
52621;DHT22;38515;53.160;6.990;2023-02-04T14:24:24;7.00;99.90
52621;DHT22;38515;53.160;6.990;2023-02-04T14:26:50;6.80;99.90
52621;DHT22;38515;53.160;6.990;2023-02-04T14:29:16;6.70;99.90
52621;DHT22;38515;53.160;6.990;2023-02-04T14:31:42;6.70;99.90
52621;DHT22;38515;53.160;6.990;2023-02-04T14:34:08;6.60;99.90
52621;DHT22;38515;53.160;6.990;2023-02-04T14:36:34;6.50;99.90
52621;DHT22;38515;53.160;6.990;2023-02-04T14:39:00;6.50;99.90
52621;DHT22;38515;53.160;6.990;2023-02-04T14:41:26;6.50;99.90
52621;DHT22;38515;53.160;6.990;2023-02-04T14:43:54;6.50;99.90
52621;DHT22;38515;53.160;6.990;2023-02-04T14:46:20;6.40;99.90
52621;DHT22;38515;53.160;6.990;2023-02-04T14:48:46;6.60;99.90
52621;DHT22;38515;53.160;6.990;2023-02-04T14:51:12;6.70;99.90
52621;DHT22;38515;53.160;6.990;2023-02-04T14:53:38;6.60;99.90
52621;DHT22;38515;53.160;6.990;2023-02-04T14:56:04;6.60;99.90
52621;DHT22;38515;53.160;6.990;2023-02-04T14:58:30;6.50;99.90
52621;DHT22;38515;53.160;6.990;2023-02-04T15:00:56;6.60;99.90
52621;DHT22;38515;53.160;6.990;2023-02-04T15:03:22;6.50;99.90
52621;DHT22;38515;53.160;6.990;2023-02-04T15:05:48;6.50;99.90
52621;DHT22;38515;53.160;6.990;2023-02-04T15:08:14;6.40;99.90
52621;DHT22;38515;53.160;6.990;2023-02-04T15:10:40;6.30;99.90
52621;DHT22;38515;53.160;6.990;2023-02-04T15:13:06;6.20;99.90
52621;DHT22;38515;53.160;6.990;2023-02-04T15:15:34;6.20;99.90
52621;DHT22;38515;53.160;6.990;2023-02-04T15:18:00;8.00;99.90
52621;DHT22;38515;53.160;6.990;2023-02-04T15:20:26;6.20;99.90
52621;DHT22;38515;53.160;6.990;2023-02-04T15:22:52;6.20;99.90
52621;DHT22;38515;53.160;6.990;2023-02-04T15:25:21;6.10;99.90
52621;DHT22;38515;53.160;6.990;2023-02-04T15:27:47;6.10;99.90
52621;DHT22;38515;53.160;6.990;2023-02-04T15:30:14;6.20;99.90
52621;DHT22;38515;53.160;6.990;2023-02-04T15:32:40;5.90;99.90
52621;DHT22;38515;53.160;6.990;2023-02-04T15:35:08;5.90;99.90
52621;DHT22;38515;53.160;6.990;2023-02-04T15:37:34;5.90;99.90
52621;DHT22;38515;53.160;6.990;2023-02-04T15:40:00;6.00;99.90
52621;DHT22;38515;53.160;6.990;2023-02-04T15:42:26;5.70;99.90
52621;DHT22;38515;53.160;6.990;2023-02-04T15:44:52;5.70;99.90
52621;DHT22;38515;53.160;6.990;2023-02-04T15:47:18;5.60;99.90
52621;DHT22;38515;53.160;6.990;2023-02-04T15:49:44;5.60;99.90
52621;DHT22;38515;53.160;6.990;2023-02-04T15:52:10;5.50;99.90
52621;DHT22;38515;53.160;6.990;2023-02-04T15:54:37;5.50;99.90
52621;DHT22;38515;53.160;6.990;2023-02-04T15:57:05;5.50;99.90
52621;DHT22;38515;53.160;6.990;2023-02-04T15:59:31;5.30;99.90
52621;DHT22;38515;53.160;6.990;2023-02-04T16:01:57;5.30;99.90
52621;DHT22;38515;53.160;6.990;2023-02-04T16:04:23;5.20;99.90